Time;durP1;ratioP1;P1;durP2;ratioP2;P2;SDS_P1;SDS_P2;PMS_P1;PMS_P2;Temp;Humidity;BMP_temperature;BMP_pressure;BME280_temperature;BME280_humidity;BME280_pressure;Samples;Min_cycle;Max_cycle;Signal;HPM_P1;HPM_P2
2022/01/22 00:02:18;;;;;;;22.58;19.38;;;;;;;18.33;39.13;102240.25;5035366;28;20072;-79
2022/01/22 00:04:46;;;;;;;20.70;17.92;;;;;;;18.31;39.18;102231.47;5035532;28;20500;-79
2022/01/22 00:07:13;;;;;;;21.08;18.58;;;;;;;18.33;39.04;102239.41;5035443;28;20053;-79
2022/01/22 00:09:59;;;;;;;28.15;19.83;;;;;;;18.33;39.05;102244.75;5033764;28;20060;-78
2022/01/22 00:15:16;;;;;;;23.00;18.42;;;;;;;18.33;38.90;102236.72;5033693;28;20057;-78
2022/01/22 00:17:44;;;;;;;23.15;18.65;;;;;;;18.34;38.85;102239.28;5031770;28;20069;-78
2022/01/22 00:20:13;;;;;;;24.70;19.67;;;;;;;18.34;39.10;102235.75;5033371;28;20065;-78
2022/01/22 00:22:42;;;;;;;21.75;18.50;;;;;;;18.34;38.89;102236.59;5033600;28;20064;-78
2022/01/22 00:25:11;;;;;;;21.65;18.63;;;;;;;18.34;39.11;102230.38;5032588;28;20052;-78
2022/01/22 00:27:40;;;;;;;23.13;19.88;;;;;;;18.35;38.66;102237.47;5032465;28;20061;-79
2022/01/22 00:30:10;;;;;;;24.58;18.80;;;;;;;18.34;38.73;102236.59;5032331;28;20056;-79
2022/01/22 00:32:39;;;;;;;23.05;20.00;;;;;;;18.35;38.82;102234.78;5033226;28;20426;-78
2022/01/22 00:35:07;;;;;;;20.95;18.60;;;;;;;18.34;38.83;102235.75;5032778;28;20041;-79
2022/01/22 00:37:37;;;;;;;24.08;19.05;;;;;;;18.35;39.03;102240.16;5032073;28;20049;-77
2022/01/22 00:40:10;;;;;;;24.23;18.88;;;;;;;18.35;38.64;102240.16;5033117;28;20057;-77
2022/01/22 00:42:38;;;;;;;21.67;18.33;;;;;;;18.36;38.51;102233.84;5032670;28;20049;-76
2022/01/22 00:45:06;;;;;;;23.45;18.70;;;;;;;18.36;38.60;102236.53;5032411;28;20321;-77
2022/01/22 00:47:33;;;;;;;22.27;19.27;;;;;;;18.37;38.64;102238.25;5016159;28;20564;-77
2022/01/22 00:50:03;;;;;;;23.70;18.45;;;;;;;18.36;38.60;102231.19;5016014;28;20433;-78
2022/01/22 00:52:30;;;;;;;26.30;19.05;;;;;;;18.37;38.55;102238.25;5016127;28;20053;-77
2022/01/22 00:54:57;;;;;;;22.55;19.55;;;;;;;18.37;38.55;102239.13;5034797;28;20401;-78
2022/01/22 00:57:26;;;;;;;24.10;18.73;;;;;;;18.36;38.61;102234.72;5034540;28;20397;-78
2022/01/22 00:59:54;;;;;;;24.33;19.52;;;;;;;18.37;38.53;102233.75;5034422;28;20052;-77
2022/01/22 01:02:21;;;;;;;24.27;18.02;;;;;;;18.37;38.45;102235.56;5034792;28;20405;-77
2022/01/22 01:04:49;;;;;;;22.02;18.98;;;;;;;18.37;38.40;102235.56;5032526;28;20061;-77
2022/01/22 01:07:16;;;;;;;24.17;19.45;;;;;;;18.37;38.50;102235.56;5032783;28;20057;-78
2022/01/22 01:09:44;;;;;;;20.42;16.67;;;;;;;18.38;38.38;102234.63;5034609;28;20408;-78
2022/01/22 01:12:12;;;;;;;25.35;19.25;;;;;;;18.37;38.41;102236.44;5032493;28;20540;-77
2022/01/22 01:14:49;;;;;;;22.05;17.75;;;;;;;18.39;38.35;102239.00;5032528;28;20509;-77
2022/01/22 01:17:56;;;;;;;24.30;19.08;;;;;;;18.39;38.32;102244.38;5032483;28;20041;-78
2022/01/22 01:34:13;;;;;;;22.83;17.60;;;;;;;18.40;38.42;102262.22;5012541;28;20406;-77
2022/01/22 01:36:43;;;;;;;22.50;17.48;;;;;;;18.41;38.30;102259.44;5014358;28;20490;-77
2022/01/22 01:39:18;;;;;;;21.83;16.52;;;;;;;18.41;38.33;102254.06;5012250;28;20072;-77
2022/01/22 01:44:16;;;;;;;25.08;18.15;;;;;;;18.42;38.50;102255.78;5012625;28;20386;-77
2022/01/22 01:47:19;;;;;;;20.73;17.25;;;;;;;18.41;38.30;102254.06;5011068;28;20046;-77
2022/01/22 01:49:47;;;;;;;21.30;17.15;;;;;;;18.41;38.28;102242.47;5014140;28;20042;-78
2022/01/22 01:52:42;;;;;;;20.33;16.40;;;;;;;18.42;38.54;102241.53;5012877;28;20057;-77
2022/01/22 01:55:14;;;;;;;20.35;16.30;;;;;;;18.41;38.49;102243.34;4996201;28;20052;-78
2022/01/22 01:57:43;;;;;;;21.42;17.05;;;;;;;18.42;38.56;102239.69;5012304;28;20045;-77
2022/01/22 02:00:20;;;;;;;18.95;16.38;;;;;;;18.42;38.44;102242.38;5013795;28;20474;-78
2022/01/22 02:02:53;;;;;;;19.85;17.08;;;;;;;18.42;38.61;102238.84;5012033;28;20548;-78
2022/01/22 02:05:23;;;;;;;20.30;17.00;;;;;;;18.42;38.46;102222.75;4995923;28;20501;-78
2022/01/22 02:08:00;;;;;;;20.85;17.05;;;;;;;18.42;38.36;102228.97;5012273;28;20410;-78
2022/01/22 02:10:46;;;;;;;21.75;17.73;;;;;;;18.43;38.43;102229.84;5012384;28;20054;-78
2022/01/22 02:13:59;;;;;;;20.98;16.52;;;;;;;18.42;38.25;102233.47;5012482;28;20056;-77
2022/01/22 02:25:11;;;;;;;19.08;16.98;;;;;;;18.43;38.47;102235.19;5031500;28;20049;-77
2022/01/22 02:27:38;;;;;;;21.02;16.80;;;;;;;18.44;38.34;102234.25;5031443;28;20053;-78
2022/01/22 02:30:09;;;;;;;19.40;16.50;;;;;;;18.43;38.38;102235.19;5032273;28;20045;-78
2022/01/22 02:33:27;;;;;;;18.80;16.27;;;;;;;18.43;38.46;102238.75;5030968;28;20060;-78
2022/01/22 02:36:07;;;;;;;17.95;15.38;;;;;;;18.43;38.52;102224.47;5013732;28;20053;-78
2022/01/22 02:38:46;;;;;;;21.23;17.73;;;;;;;18.43;38.50;102224.47;5013992;28;20058;-78
2022/01/22 02:41:18;;;;;;;20.15;16.60;;;;;;;18.44;38.57;102231.59;5013903;28;20056;-77
2022/01/22 02:43:49;;;;;;;21.63;16.92;;;;;;;18.45;38.50;102222.56;5013830;28;20057;-78
2022/01/22 02:46:21;;;;;;;19.13;16.83;;;;;;;18.45;38.54;102225.25;5013809;28;20161;-78
2022/01/22 02:48:49;;;;;;;20.48;15.90;;;;;;;18.45;38.64;102234.16;5030871;28;20061;-78
2022/01/22 02:51:17;;;;;;;17.60;15.20;;;;;;;18.45;38.57;102231.47;5014584;28;20045;-78
2022/01/22 02:53:50;;;;;;;20.98;16.70;;;;;;;18.46;38.58;102237.69;5018435;28;20053;-78
2022/01/22 02:56:18;;;;;;;20.35;17.55;;;;;;;18.45;38.55;102238.66;5034620;28;20151;-77
2022/01/22 02:58:45;;;;;;;17.85;15.93;;;;;;;18.45;38.58;102238.66;5017967;28;20069;-77
2022/01/22 03:01:16;;;;;;;17.48;15.13;;;;;;;18.46;38.32;102235.00;5017587;28;20049;-77
2022/01/22 03:03:44;;;;;;;18.75;16.40;;;;;;;18.45;38.48;102233.31;5017790;28;20102;-78
2022/01/22 03:06:12;;;;;;;18.33;16.17;;;;;;;18.46;38.59;102237.69;5017528;28;20049;-77
2022/01/22 03:08:42;;;;;;;18.52;16.63;;;;;;;18.46;38.43;102226.97;5017277;28;20064;-78
2022/01/22 03:11:24;;;;;;;18.67;15.88;;;;;;;18.46;38.38;102229.66;5036658;28;20041;-78
2022/01/22 03:15:16;;;;;;;19.77;16.58;;;;;;;18.47;38.49;102234.06;5035578;28;20053;-78
2022/01/22 03:19:28;;;;;;;17.50;15.55;;;;;;;18.47;38.41;102226.00;5035492;28;20049;-78
2022/01/22 03:22:12;;;;;;;;;;;;;;;18.47;38.40;102226.00;5022184;28;20054;-77
2022/01/22 03:27:28;;;;;;;18.63;15.57;;;;;;;18.47;38.55;102226.91;5016264;28;20044;-77
2022/01/22 03:29:58;;;;;;;19.00;15.87;;;;;;;18.47;38.44;102226.91;5014726;28;20092;-77
2022/01/22 03:32:34;;;;;;;17.65;15.20;;;;;;;18.47;38.50;102226.00;5024835;28;20283;-78
2022/01/22 03:35:24;;;;;;;17.70;15.07;;;;;;;18.47;38.51;102212.59;5034860;28;20068;-78
2022/01/22 03:37:56;;;;;;;16.52;14.75;;;;;;;18.46;38.40;102218.94;5035491;28;20068;-77
2022/01/22 03:40:29;;;;;;;16.67;14.30;;;;;;;18.47;38.49;102221.53;5034606;28;20413;-78
2022/01/22 03:42:56;;;;;;;16.80;14.82;;;;;;;18.46;38.52;102209.06;5034637;28;20409;-77
2022/01/22 03:45:25;;;;;;;17.83;15.48;;;;;;;18.46;38.53;102209.06;5034825;28;20505;-77
2022/01/22 03:47:54;;;;;;;18.17;15.38;;;;;;;18.47;38.56;102215.28;5034441;28;20054;-77
2022/01/22 03:50:22;;;;;;;16.00;13.88;;;;;;;18.47;38.28;102215.28;5036185;28;20061;-77
2022/01/22 03:52:50;;;;;;;17.52;14.48;;;;;;;18.46;38.57;102205.53;5034207;28;20057;-77
2022/01/22 03:58:21;;;;;;;18.67;15.60;;;;;;;18.46;38.59;102186.75;5035414;28;20054;-77
2022/01/22 04:01:23;;;;;;;18.98;15.63;;;;;;;18.46;38.54;102178.69;5034220;28;20054;-77
2022/01/22 04:03:56;;;;;;;16.45;14.23;;;;;;;18.46;38.55;102181.38;5033196;28;20060;-78
2022/01/22 04:08:54;;;;;;;16.88;14.40;;;;;;;18.46;38.71;102182.25;5035216;28;20044;-77
2022/01/22 04:11:22;;;;;;;16.55;13.88;;;;;;;18.45;38.67;102188.56;5033872;28;20412;-78
2022/01/22 04:13:52;;;;;;;17.23;14.30;;;;;;;18.45;38.68;102196.63;5035128;28;20045;-78
2022/01/22 04:16:20;;;;;;;17.67;15.55;;;;;;;18.45;38.67;102196.63;5033676;28;20076;-78
2022/01/22 04:27:13;;;;;;;17.42;14.52;;;;;;;18.44;38.61;102200.25;5034351;28;20045;-78
2022/01/22 04:29:41;;;;;;;17.27;14.43;;;;;;;18.44;38.53;102197.59;5034956;28;20053;-79
2022/01/22 04:32:08;;;;;;;17.75;14.48;;;;;;;18.45;38.56;102198.44;5026453;28;20056;-77
2022/01/22 04:34:36;;;;;;;18.63;14.60;;;;;;;18.44;38.75;102197.59;5015460;28;20050;-78
2022/01/22 04:37:05;;;;;;;16.67;14.23;;;;;;;18.43;38.76;102193.19;5015109;28;20045;-77
2022/01/22 04:39:32;;;;;;;18.00;14.80;;;;;;;18.43;38.66;102187.81;5014917;28;20049;-77
2022/01/22 04:42:00;;;;;;;17.00;14.00;;;;;;;18.43;38.75;102197.66;5015266;28;20054;-77
2022/01/22 04:44:32;;;;;;;15.20;13.35;;;;;;;18.43;38.68;102201.22;5014868;28;20044;-80
2022/01/22 04:55:02;;;;;;;17.90;14.73;;;;;;;18.43;38.67;102200.34;5014168;28;20069;-79
2022/01/22 04:57:38;;;;;;;18.30;15.50;;;;;;;18.42;38.78;102198.63;5013917;28;20050;-79
2022/01/22 05:00:10;;;;;;;18.00;14.32;;;;;;;18.42;38.74;102203.97;5013457;28;20061;-78
2022/01/22 05:03:10;;;;;;;16.95;14.02;;;;;;;18.42;38.82;102201.31;4993532;28;20069;-78
2022/01/22 05:05:56;;;;;;;15.98;13.00;;;;;;;18.41;38.67;102200.44;4990036;28;20414;-78
2022/01/22 05:08:35;;;;;;;16.52;13.68;;;;;;;18.42;38.80;102195.94;4995871;28;20413;-78
2022/01/22 05:11:08;;;;;;;14.73;13.13;;;;;;;18.41;38.80;102194.22;4996422;28;20457;-77
2022/01/22 05:13:38;;;;;;;19.05;14.90;;;;;;;18.42;38.89;102190.56;4996216;28;20050;-77
2022/01/22 05:16:09;;;;;;;16.73;13.88;;;;;;;18.40;38.68;102188.00;4995169;28;20050;-77
2022/01/22 05:18:45;;;;;;;16.52;13.60;;;;;;;18.40;38.79;102188.00;4995775;28;20430;-77
2022/01/22 05:21:16;;;;;;;16.75;13.93;;;;;;;18.41;38.79;102188.84;4992946;28;20053;-79
2022/01/22 05:23:45;;;;;;;17.90;14.38;;;;;;;18.43;38.67;102189.59;4995131;28;20060;-78
2022/01/22 05:29:19;;;;;;;16.88;13.82;;;;;;;18.43;38.74;102192.28;4995206;28;20053;-79
2022/01/22 05:38:35;;;;;;;18.13;13.93;;;;;;;18.41;38.66;102208.47;5026826;28;20370;-78
2022/01/22 05:41:03;;;;;;;18.00;14.05;;;;;;;18.42;38.46;102217.38;5066290;27;20050;-77
2022/01/22 05:43:30;;;;;;;20.20;14.98;;;;;;;18.42;38.66;102214.72;5129528;28;20051;-79
2022/01/22 05:45:58;;;;;;;17.00;14.00;;;;;;;18.40;38.61;102214.81;5129855;28;20058;-79
2022/01/22 05:48:25;;;;;;;15.82;13.45;;;;;;;18.42;38.65;102206.66;5130247;28;20051;-79
2022/01/22 05:50:57;;;;;;;17.52;14.75;;;;;;;18.39;38.47;102199.69;5131345;28;20043;-79
2022/01/22 06:01:23;;;;;;;16.55;14.32;;;;;;;18.40;38.59;102190.69;5129233;28;20054;-78
2022/01/22 06:04:01;;;;;;;17.42;14.02;;;;;;;18.40;38.47;102187.13;5129469;28;20055;-79
2022/01/22 06:06:29;;;;;;;17.08;14.35;;;;;;;18.39;38.51;102188.97;5129577;28;20051;-78
2022/01/22 06:09:01;;;;;;;16.00;13.75;;;;;;;18.38;38.39;102181.84;5129411;28;20055;-79
2022/01/22 06:11:36;;;;;;;17.98;13.20;;;;;;;18.38;38.32;102179.16;5128843;28;20054;-79
2022/01/22 06:14:05;;;;;;;17.33;13.27;;;;;;;18.38;38.39;102178.31;5129276;28;20058;-79
2022/01/22 06:16:39;;;;;;;17.52;13.00;;;;;;;18.39;38.24;102177.34;5113118;28;20608;-79
2022/01/22 06:19:09;;;;;;;18.67;14.68;;;;;;;18.38;38.27;102172.94;5130153;28;20050;-79
2022/01/22 06:21:37;;;;;;;15.18;13.30;;;;;;;18.38;38.27;102176.50;5128888;28;20400;-79
2022/01/22 06:24:06;;;;;;;18.65;14.32;;;;;;;18.37;38.51;102177.44;5017578;28;20501;-79
2022/01/22 06:26:35;;;;;;;17.02;13.82;;;;;;;18.37;38.27;102181.94;5006540;28;20062;-80
2022/01/22 06:29:04;;;;;;;16.60;14.10;;;;;;;18.38;38.28;102189.03;5005043;28;20101;-79
2022/01/22 06:31:32;;;;;;;16.05;13.82;;;;;;;18.37;38.38;102188.19;5004577;28;20414;-79
2022/01/22 06:34:00;;;;;;;15.73;13.23;;;;;;;18.38;38.22;102183.66;5005689;28;20498;-79
2022/01/22 06:36:28;;;;;;;18.25;13.07;;;;;;;18.38;38.25;102178.31;5005587;28;20050;-79
2022/01/22 06:39:08;;;;;;;18.13;14.10;;;;;;;18.38;38.24;102181.00;5004581;28;20053;-79
2022/01/22 06:41:54;;;;;;;17.10;13.23;;;;;;;18.39;38.25;102180.91;5012811;28;20073;-78
2022/01/22 06:45:03;;;;;;;16.55;13.60;;;;;;;18.40;38.27;102179.09;4965948;28;20051;-77
2022/01/22 06:47:47;;;;;;;15.30;13.00;;;;;;;18.38;38.30;102176.50;4947411;28;20047;-77
2022/01/22 06:50:21;;;;;;;15.43;13.27;;;;;;;18.38;38.30;102168.44;4952261;29;20060;-77
2022/01/22 06:53:03;;;;;;;17.05;14.35;;;;;;;18.37;38.40;102174.78;4952277;29;20507;-78
2022/01/22 06:55:50;;;;;;;18.02;15.02;;;;;;;18.38;38.56;102176.50;4936850;28;20082;-77
2022/01/22 06:58:18;;;;;;;15.52;12.43;;;;;;;18.37;38.41;102169.41;4936041;29;20063;-77
2022/01/22 07:01:07;;;;;;;16.20;12.73;;;;;;;18.36;38.38;102161.47;4951686;28;20070;-77
2022/01/22 07:03:43;;;;;;;15.57;13.00;;;;;;;18.36;38.40;102158.78;4936579;29;20055;-78
2022/01/22 07:06:39;;;;;;;15.35;13.60;;;;;;;18.35;38.51;102154.34;5061511;28;20210;-77
2022/01/22 07:09:07;;;;;;;14.80;12.50;;;;;;;18.34;38.39;102140.09;5073288;28;20523;-77
2022/01/22 07:11:38;;;;;;;15.40;12.40;;;;;;;18.34;38.55;102133.88;5056038;28;20061;-77
2022/01/22 07:14:05;;;;;;;16.10;12.93;;;;;;;18.34;38.55;102144.59;5072853;28;20536;-77
2022/01/22 07:16:33;;;;;;;13.45;11.82;;;;;;;18.33;38.43;102140.19;5105405;28;20058;-77
2022/01/22 07:19:21;;;;;;;14.23;12.35;;;;;;;18.33;38.57;102146.41;5114370;28;20048;-77
2022/01/22 07:22:06;;;;;;;14.50;11.60;;;;;;;18.32;38.48;102141.16;5114413;28;20062;-78
2022/01/22 07:24:41;;;;;;;15.77;12.98;;;;;;;18.32;38.60;102157.25;5028444;28;20057;-77
2022/01/22 07:27:09;;;;;;;16.08;12.73;;;;;;;18.31;38.55;102166.22;4991023;28;20513;-77
2022/01/22 07:29:37;;;;;;;14.57;11.75;;;;;;;18.30;38.58;102168.03;4992647;28;20042;-77
2022/01/22 07:32:11;;;;;;;15.52;12.13;;;;;;;18.31;38.62;102172.47;5029709;28;20046;-78
2022/01/22 07:34:39;;;;;;;13.82;11.65;;;;;;;18.31;38.58;102155.50;5010436;28;20404;-78
2022/01/22 07:37:19;;;;;;;15.43;12.75;;;;;;;18.29;38.59;102164.50;5011743;28;20054;-79
2022/01/22 07:39:47;;;;;;;15.43;12.40;;;;;;;18.28;38.59;102144.03;5011306;28;20061;-78
2022/01/22 07:42:41;;;;;;;14.05;11.65;;;;;;;18.28;38.52;102135.13;5072677;28;20163;-78
2022/01/22 07:45:27;;;;;;;13.40;11.75;;;;;;;18.28;38.68;102145.84;5079494;28;20444;-80
2022/01/22 07:48:06;;;;;;;13.80;11.93;;;;;;;18.27;38.66;102133.38;5055655;28;20056;-79
2022/01/22 07:51:04;;;;;;;14.20;12.18;;;;;;;18.27;38.57;102146.78;4993468;28;20050;-79
2022/01/22 07:53:32;;;;;;;15.63;12.98;;;;;;;18.28;38.41;102156.56;4992759;28;20054;-79
2022/01/22 07:56:05;;;;;;;14.75;11.48;;;;;;;18.27;38.57;102158.38;4993051;28;20058;-79
2022/01/22 07:58:32;;;;;;;13.75;11.55;;;;;;;18.27;38.67;102154.81;4992440;28;20047;-79
2022/01/22 08:01:00;;;;;;;15.48;12.13;;;;;;;18.26;38.43;102147.75;4975244;28;20441;-77
2022/01/22 08:03:37;;;;;;;16.73;12.85;;;;;;;18.26;38.57;102153.97;4992787;28;20072;-77
2022/01/22 08:06:23;;;;;;;15.23;12.48;;;;;;;18.26;38.45;102142.38;4997022;28;20062;-77
2022/01/22 08:09:09;;;;;;;14.68;12.30;;;;;;;18.25;38.59;102141.53;4993421;28;20069;-76
2022/01/22 08:11:59;;;;;;;14.38;11.80;;;;;;;18.25;38.54;102135.31;4976448;28;20426;-78
2022/01/22 08:14:27;;;;;;;14.48;11.75;;;;;;;18.25;38.48;102137.97;4992364;28;20176;-78
2022/01/22 08:16:54;;;;;;;15.57;12.25;;;;;;;18.25;38.64;102140.66;4976068;28;20511;-78
2022/01/22 08:19:29;;;;;;;13.93;11.55;;;;;;;18.23;38.60;102127.38;5004323;28;20433;-78
2022/01/22 08:21:57;;;;;;;14.25;12.23;;;;;;;18.24;38.54;102131.75;5015422;28;20113;-79
2022/01/22 08:24:53;;;;;;;15.98;12.55;;;;;;;18.24;38.47;102128.22;4930289;28;20157;-77
2022/01/22 08:29:48;;;;;;;17.00;12.93;;;;;;;18.24;38.51;102139.81;4913054;28;20064;-78
2022/01/22 08:37:30;;;;;;;16.15;12.73;;;;;;;18.23;38.53;102124.69;4911667;28;20055;-80
2022/01/22 08:39:57;;;;;;;16.55;12.95;;;;;;;18.23;38.44;102116.66;4914496;28;20520;-78
2022/01/22 08:42:25;;;;;;;14.43;11.77;;;;;;;18.26;38.52;102120.94;4897615;28;20052;-78
2022/01/22 08:44:53;;;;;;;16.90;13.23;;;;;;;18.24;38.64;102118.34;4911613;28;20052;-78
2022/01/22 08:47:21;;;;;;;15.30;12.50;;;;;;;18.25;38.49;102113.84;4912773;28;20524;-78
2022/01/22 08:49:49;;;;;;;15.65;11.73;;;;;;;18.25;38.56;102109.34;4912223;28;20548;-78
2022/01/22 08:52:19;;;;;;;15.43;11.80;;;;;;;18.26;38.69;102100.34;4913354;28;20059;-78
2022/01/22 08:54:46;;;;;;;15.50;12.32;;;;;;;18.26;38.68;102096.81;4897404;28;20051;-78
2022/01/22 08:57:18;;;;;;;15.30;12.82;;;;;;;18.27;38.59;102093.16;4913195;28;20052;-78
2022/01/22 09:00:06;;;;;;;15.98;12.50;;;;;;;18.27;38.72;102088.69;4895971;29;20052;-78
2022/01/22 09:02:44;;;;;;;16.40;13.35;;;;;;;18.27;38.57;102087.81;4979141;28;20050;-77
2022/01/22 09:05:23;;;;;;;15.35;12.20;;;;;;;18.26;38.84;102086.94;4991402;28;20501;-79
2022/01/22 09:08:15;;;;;;;16.23;12.23;;;;;;;18.27;38.88;102096.75;4983586;28;20397;-87
2022/01/22 09:11:01;;;;;;;15.43;12.57;;;;;;;18.28;38.99;102090.41;5017825;28;20057;-78
2022/01/22 09:13:47;;;;;;;13.43;11.77;;;;;;;18.28;38.99;102093.09;5016959;28;20409;-77
2022/01/22 09:16:14;;;;;;;16.65;12.80;;;;;;;18.29;38.74;102088.59;5010082;28;20050;-79
2022/01/22 09:18:42;;;;;;;14.07;12.05;;;;;;;18.29;39.07;102083.22;5010424;28;20046;-79
2022/01/22 09:21:10;;;;;;;16.85;12.63;;;;;;;18.28;39.07;102087.72;5010103;28;20065;-78
2022/01/22 09:23:38;;;;;;;14.10;11.75;;;;;;;18.28;38.99;102103.81;5008884;28;20045;-78
2022/01/22 09:26:10;;;;;;;14.25;11.57;;;;;;;18.28;39.07;102109.16;5009456;28;20046;-77
2022/01/22 09:28:38;;;;;;;16.65;11.77;;;;;;;18.27;39.10;102109.25;5007903;28;20046;-78
2022/01/22 09:31:06;;;;;;;13.00;10.80;;;;;;;18.27;39.44;102115.50;5008788;28;20050;-77
2022/01/22 09:33:33;;;;;;;15.02;11.20;;;;;;;18.26;39.55;102118.25;4990926;28;20054;-78
2022/01/22 09:36:15;;;;;;;16.35;11.63;;;;;;;18.25;40.63;102108.50;4990578;28;20058;-78
2022/01/22 09:39:03;;;;;;;14.18;11.07;;;;;;;18.22;40.16;102114.03;4997485;28;20038;-80
2022/01/22 09:41:51;;;;;;;16.95;12.07;;;;;;;18.19;40.02;102119.56;4983198;28;20048;-79
2022/01/22 09:44:49;;;;;;;17.10;12.63;;;;;;;18.15;39.65;102121.59;4986265;28;20457;-82
2022/01/22 09:47:35;;;;;;;19.27;14.15;;;;;;;18.15;39.69;102128.75;4990019;28;20074;-77
2022/01/22 09:50:18;;;;;;;19.20;14.90;;;;;;;18.13;39.50;102125.31;4955423;28;20051;-76
2022/01/22 09:53:05;;;;;;;18.63;15.02;;;;;;;18.10;39.58;102123.69;4969932;28;20055;-80
2022/01/22 09:55:59;;;;;;;20.45;15.73;;;;;;;18.09;39.42;102121.97;4968465;28;20063;-77
2022/01/22 09:58:52;;;;;;;22.25;16.80;;;;;;;18.08;39.17;102116.69;4970049;28;20223;-77
2022/01/22 10:01:28;;;;;;;21.45;16.15;;;;;;;18.04;38.96;102114.19;4969669;28;20522;-83
2022/01/22 10:04:04;;;;;;;19.60;15.35;;;;;;;18.06;38.96;102111.41;4968576;28;20498;-79
2022/01/22 10:06:53;;;;;;;19.75;14.48;;;;;;;18.06;38.81;102095.34;4969128;28;20054;-79
2022/01/22 10:10:04;;;;;;;22.67;15.98;;;;;;;18.07;38.76;102098.88;4984793;28;20045;-79
2022/01/22 10:12:52;;;;;;;21.77;16.25;;;;;;;18.06;39.12;102100.69;4992384;28;20219;-79
2022/01/22 10:15:35;;;;;;;18.90;14.85;;;;;;;18.03;38.86;102104.44;4989075;28;20086;-79
2022/01/22 10:18:19;;;;;;;19.77;14.60;;;;;;;18.03;38.80;102103.59;4968275;28;20050;-80
2022/01/22 10:20:46;;;;;;;20.60;14.93;;;;;;;18.03;38.89;102103.59;4950452;29;20055;-80
2022/01/22 10:23:24;;;;;;;19.15;14.18;;;;;;;18.03;38.79;102085.69;5022386;28;20068;-80
2022/01/22 10:26:01;;;;;;;19.85;13.95;;;;;;;18.03;38.75;102080.31;5071370;28;20427;-79
2022/01/22 10:28:46;;;;;;;19.95;13.30;;;;;;;18.06;38.95;102068.53;4955201;28;20082;-78
2022/01/22 10:31:24;;;;;;;19.90;13.75;;;;;;;18.07;38.85;102064.03;5007086;28;20512;-79
2022/01/22 10:34:30;;;;;;;15.23;11.85;;;;;;;18.09;38.71;102054.97;5012819;28;20401;-79
2022/01/22 10:37:28;;;;;;;17.52;12.85;;;;;;;18.09;38.63;102063.00;5016407;28;20050;-79
2022/01/22 10:40:27;;;;;;;19.23;12.23;;;;;;;18.12;38.63;102067.31;5012835;28;20038;-79
2022/01/22 10:43:26;;;;;;;15.40;12.43;;;;;;;18.16;38.70;102067.03;5011924;28;20062;-79
2022/01/22 10:46:00;;;;;;;13.25;11.10;;;;;;;18.18;38.84;102075.84;5012751;28;20065;-78
2022/01/22 10:48:28;;;;;;;15.07;12.15;;;;;;;18.19;38.67;102076.69;5012420;28;20508;-78
2022/01/22 10:51:10;;;;;;;17.63;12.30;;;;;;;18.18;38.54;102080.34;5012639;28;20057;-78
2022/01/22 10:53:42;;;;;;;21.83;13.43;;;;;;;18.18;37.44;102080.34;5012930;28;20053;-77
2022/01/22 10:56:13;;;;;;;27.40;19.40;;;;;;;18.13;33.92;102075.25;5012017;28;20397;-77
2022/01/22 10:58:52;;;;;;;25.92;19.75;;;;;;;17.98;33.58;102079.72;5012294;28;20574;-77
2022/01/22 11:01:21;;;;;;;29.55;21.15;;;;;;;17.87;33.61;102063.47;5012476;28;20489;-77
2022/01/22 11:04:11;;;;;;;28.90;20.63;;;;;;;17.75;33.39;102066.88;5012087;28;20050;-76
2022/01/22 11:06:40;;;;;;;30.52;21.67;;;;;;;17.66;33.32;102056.66;5045713;28;20051;-76
2022/01/22 11:09:08;;;;;;;30.10;21.38;;;;;;;17.55;33.17;102055.47;5115122;28;20036;-76
2022/01/22 11:11:38;;;;;;;24.88;15.40;;;;;;;17.51;34.89;102061.97;5115525;28;20522;-76
2022/01/22 11:14:08;;;;;;;16.33;13.27;;;;;;;17.57;37.23;102067.91;5115165;28;20058;-76
2022/01/22 11:16:41;;;;;;;16.77;12.90;;;;;;;17.62;36.97;102063.13;5115061;28;20043;-76
2022/01/22 11:19:22;;;;;;;17.98;13.73;;;;;;;17.67;37.16;102064.63;5116134;28;20039;-77
2022/01/22 11:21:52;;;;;;;17.33;12.55;;;;;;;17.72;37.29;102067.00;5022864;28;20053;-78
2022/01/22 11:24:22;;;;;;;16.08;11.68;;;;;;;17.76;37.36;102066.75;5012402;28;20046;-78
2022/01/22 11:26:55;;;;;;;15.02;11.80;;;;;;;17.82;37.54;102070.88;5012142;28;20054;-78
2022/01/22 11:29:26;;;;;;;12.95;11.07;;;;;;;17.87;37.94;102050.06;5011267;28;20050;-77
2022/01/22 11:31:56;;;;;;;14.52;10.55;;;;;;;17.91;37.82;102042.72;5009350;28;20050;-74
2022/01/22 11:34:26;;;;;;;12.85;9.80;;;;;;;17.93;37.90;102040.78;5010731;28;20060;-75
2022/01/22 11:37:27;;;;;;;15.52;9.60;;;;;;;17.96;37.93;102043.28;5013622;28;20049;-75
2022/01/22 11:40:15;;;;;;;13.40;10.38;;;;;;;17.97;37.92;102039.63;5103940;28;20036;-75
2022/01/22 11:43:00;;;;;;;10.40;8.57;;;;;;;17.99;37.85;102035.06;5077899;28;20069;-75
2022/01/22 11:45:31;;;;;;;13.88;9.27;;;;;;;17.99;37.84;102033.25;5011639;28;20050;-76
2022/01/22 11:48:30;;;;;;;11.93;8.57;;;;;;;18.00;37.78;102023.38;5010418;28;20049;-75
2022/01/22 11:51:25;;;;;;;11.30;8.63;;;;;;;18.01;37.75;102023.28;5014424;28;20073;-76
2022/01/22 11:53:55;;;;;;;10.70;8.40;;;;;;;18.02;37.67;102013.41;5011416;28;20049;-76
2022/01/22 11:56:27;;;;;;;12.38;8.88;;;;;;;18.02;37.73;102013.41;5112891;28;20044;-77
2022/01/22 11:58:57;;;;;;;13.48;9.15;;;;;;;18.01;38.79;102017.06;5113601;28;20051;-76
2022/01/22 12:01:50;;;;;;;12.75;9.02;;;;;;;18.02;38.52;102013.41;5113184;28;20400;-76
2022/01/22 12:04:22;;;;;;;11.30;8.20;;;;;;;18.03;38.18;102007.97;5013016;28;20390;-76
2022/01/22 12:07:02;;;;;;;12.05;8.55;;;;;;;18.06;38.36;101996.19;5011933;28;20050;-77
2022/01/22 12:09:39;;;;;;;11.30;8.52;;;;;;;18.07;38.15;101999.72;5011109;28;20048;-76
2022/01/22 12:15:41;;;;;;;11.77;8.48;;;;;;;18.10;38.42;101989.69;5010785;28;20042;-77
2022/01/22 12:18:15;;;;;;;9.10;7.72;;;;;;;18.11;38.51;101983.38;5009756;28;20050;-77
2022/01/22 12:23:32;;;;;;;11.48;8.32;;;;;;;18.13;38.53;101969.88;4990802;28;20069;-76
2022/01/22 12:26:02;;;;;;;9.32;8.30;;;;;;;18.12;38.67;101970.84;4989163;28;20418;-76
2022/01/22 12:28:39;;;;;;;11.15;7.63;;;;;;;18.13;38.81;101973.41;4974315;28;20081;-76
2022/01/22 12:31:15;;;;;;;8.82;7.47;;;;;;;18.14;38.83;101975.13;4989518;28;20070;-76
2022/01/22 12:33:46;;;;;;;12.85;7.90;;;;;;;18.15;38.70;101979.56;4988499;28;20825;-76
2022/01/22 12:36:24;;;;;;;9.57;7.72;;;;;;;18.16;38.79;101975.91;4983699;28;20054;-77
2022/01/22 12:39:07;;;;;;;12.38;8.18;;;;;;;18.15;38.88;101963.47;4985502;28;20046;-76
2022/01/22 12:44:31;;;;;;;11.65;8.25;;;;;;;18.16;38.83;101958.97;4970329;28;20050;-76
2022/01/22 12:47:09;;;;;;;10.55;7.60;;;;;;;18.17;39.19;101961.53;4988533;28;20460;-76
2022/01/22 12:49:38;;;;;;;9.98;7.80;;;;;;;18.15;39.13;101947.41;4972434;28;20544;-76
2022/01/22 12:52:09;;;;;;;11.13;8.38;;;;;;;18.14;39.31;101945.66;4982531;28;20046;-75
2022/01/22 12:54:45;;;;;;;9.73;7.97;;;;;;;18.15;39.53;101946.50;4981622;28;20506;-76
2022/01/22 12:57:22;;;;;;;12.35;8.30;;;;;;;18.15;39.64;101951.88;4956403;28;20051;-76
2022/01/22 12:59:51;;;;;;;14.88;8.70;;;;;;;18.15;39.88;101952.75;4977611;28;20054;-77
2022/01/22 13:02:43;;;;;;;14.68;9.30;;;;;;;18.15;40.31;101946.50;5010787;28;20046;-77
2022/01/22 13:05:17;;;;;;;14.60;10.00;;;;;;;18.14;40.16;101951.00;5009224;28;20046;-76
2022/01/22 13:08:06;;;;;;;10.30;8.15;;;;;;;18.16;40.10;101945.56;5101285;28;20051;-76
2022/01/22 13:11:08;;;;;;;10.68;7.75;;;;;;;18.18;40.00;101941.81;5106428;28;20051;-77
2022/01/22 13:13:38;;;;;;;11.55;7.75;;;;;;;18.19;39.91;101937.31;5113122;28;20047;-76
2022/01/22 13:16:08;;;;;;;11.13;7.85;;;;;;;18.21;40.03;101930.06;5072085;28;20056;-76
2022/01/22 13:18:40;;;;;;;10.38;7.82;;;;;;;18.21;40.18;101925.56;5009721;28;20050;-76
2022/01/22 13:21:08;;;;;;;9.27;7.38;;;;;;;18.22;40.28;101932.63;5009774;28;20038;-76